createdAt,value
2022-08-23T04:00:34.244Z,21.34
2022-08-23T04:01:34.248Z,21.28
2022-08-23T04:02:34.191Z,21.17
2022-08-23T04:03:34.177Z,21.21
2022-08-23T04:04:34.187Z,21.14
2022-08-23T04:05:34.157Z,21.19
2022-08-23T04:06:34.149Z,21.14
2022-08-23T04:07:34.148Z,21.09
2022-08-23T04:08:34.182Z,21.21
2022-08-23T04:09:34.120Z,21.21
2022-08-23T04:10:34.101Z,21.21
2022-08-23T04:11:39.113Z,21.22
2022-08-23T04:12:34.085Z,21.16
2022-08-23T04:13:34.067Z,21.21
2022-08-23T04:14:34.071Z,21.21
2022-08-23T04:15:34.045Z,21.21
2022-08-23T04:16:34.037Z,21.19
2022-08-23T04:17:34.021Z,21.19
2022-08-23T04:18:34.016Z,21.17
2022-08-23T04:19:34.009Z,21.24
2022-08-23T04:20:33.999Z,21.17
2022-08-23T04:21:33.978Z,21.14
2022-08-23T04:22:38.988Z,21.27
2022-08-23T04:23:33.953Z,21.32
2022-08-23T04:24:33.952Z,21.25
2022-08-23T04:25:35.762Z,21.34
2022-08-23T04:26:33.921Z,21.28
2022-08-23T04:27:33.912Z,21.31
2022-08-23T04:28:33.905Z,21.32
2022-08-23T04:29:34.708Z,21.38
2022-08-23T04:30:33.877Z,21.32
2022-08-23T04:31:34.537Z,21.32
2022-08-23T04:32:34.343Z,21.42
2022-08-23T04:33:40.246Z,21.35
2022-08-23T04:34:33.845Z,21.37
2022-08-23T04:35:33.828Z,21.35
2022-08-23T04:36:34.646Z,21.42
2022-08-23T04:37:33.799Z,21.43
2022-08-23T04:38:33.796Z,21.50
2022-08-23T04:39:33.788Z,21.43
2022-08-23T04:40:33.803Z,21.52
2022-08-23T04:41:33.756Z,21.56
2022-08-23T04:42:33.745Z,21.52
2022-08-23T04:43:33.738Z,21.43
2022-08-23T04:44:38.751Z,21.49
2022-08-23T04:45:33.715Z,21.43
2022-08-23T04:46:33.700Z,21.42
2022-08-23T04:47:33.695Z,21.32
2022-08-23T04:48:33.676Z,21.37
2022-08-23T04:49:33.677Z,21.46
2022-08-23T04:50:33.652Z,21.42
2022-08-23T04:51:33.644Z,21.44
2022-08-23T04:52:33.632Z,21.47
2022-08-23T04:53:33.626Z,21.59
2022-08-23T04:54:33.610Z,21.59
2022-08-23T04:55:38.666Z,21.61
2022-08-23T04:56:33.596Z,21.62
2022-08-23T04:57:33.611Z,21.69
2022-08-23T04:58:33.571Z,21.71
2022-08-23T04:59:33.557Z,21.75
2022-08-23T05:00:33.662Z,21.69
2022-08-23T05:01:33.541Z,21.71
2022-08-23T05:02:33.523Z,21.74
2022-08-23T05:03:33.516Z,21.77
2022-08-23T05:04:33.508Z,21.74
2022-08-23T05:05:33.520Z,21.79
2022-08-23T05:06:39.513Z,21.72
2022-08-23T05:07:42.318Z,21.72
2022-08-23T05:08:34.457Z,21.69
2022-08-23T05:09:33.458Z,21.75
2022-08-23T05:10:33.449Z,21.69
2022-08-23T05:11:33.424Z,21.75
2022-08-23T05:12:33.411Z,21.79
2022-08-23T05:13:34.696Z,21.80
2022-08-23T05:14:33.387Z,21.80
2022-08-23T05:15:33.391Z,21.86
2022-08-23T05:16:33.371Z,21.80
2022-08-23T05:17:38.392Z,21.75
2022-08-23T05:18:33.384Z,21.88
2022-08-23T05:19:33.336Z,21.88
2022-08-23T05:20:33.339Z,21.94
2022-08-23T05:21:33.319Z,21.92
2022-08-23T05:22:33.306Z,21.88
2022-08-23T05:23:33.300Z,21.84
2022-08-23T05:24:33.277Z,21.86
2022-08-23T05:25:33.283Z,21.82
2022-08-23T05:26:33.257Z,21.82
2022-08-23T05:27:33.376Z,21.71
2022-08-23T05:28:38.265Z,21.71
2022-08-23T05:29:33.227Z,21.71
2022-08-23T05:30:33.224Z,21.74
2022-08-23T05:31:33.205Z,21.72
2022-08-23T05:32:33.793Z,21.71
2022-08-23T05:33:33.185Z,21.62
2022-08-23T05:34:33.165Z,21.61
2022-08-23T05:35:33.179Z,21.59
2022-08-23T05:36:33.146Z,21.58
2022-08-23T05:37:33.137Z,21.56
2022-08-23T05:38:33.122Z,21.62
2022-08-23T05:39:38.143Z,21.62
2022-08-23T05:40:33.124Z,21.64
2022-08-23T05:41:33.352Z,21.61
2022-08-23T05:42:34.081Z,21.61
2022-08-23T05:43:33.078Z,21.62
2022-08-23T05:44:36.435Z,21.71
2022-08-23T05:45:33.058Z,21.67
2022-08-23T05:46:33.034Z,21.72
2022-08-23T05:47:33.921Z,21.88
2022-08-23T05:48:33.012Z,21.83
2022-08-23T05:49:33.460Z,21.92
2022-08-23T05:50:38.036Z,22.00
2022-08-23T05:51:32.982Z,22.02
2022-08-23T05:52:32.968Z,22.06
2022-08-23T05:53:32.959Z,22.27
2022-08-23T05:54:32.951Z,22.21
2022-08-23T05:55:34.835Z,22.31
2022-08-23T05:56:32.934Z,22.35
2022-08-23T05:57:32.912Z,22.45
2022-08-23T05:58:32.899Z,22.58
2022-08-23T05:59:32.893Z,22.67
2022-08-23T06:00:40.397Z,22.55
2022-08-23T06:01:38.915Z,22.39
2022-08-23T06:02:32.889Z,22.35
2022-08-23T06:03:32.846Z,22.18
2022-08-23T06:04:32.909Z,22.17
2022-08-23T06:05:32.827Z,22.07
2022-08-23T06:06:37.271Z,22.14
2022-08-23T06:07:32.812Z,22.22
2022-08-23T06:08:32.791Z,22.37
2022-08-23T06:09:32.783Z,22.42
2022-08-23T06:10:32.770Z,22.37
2022-08-23T06:11:32.801Z,22.36
2022-08-23T06:12:37.765Z,22.39
2022-08-23T06:13:32.759Z,22.35
2022-08-23T06:14:32.776Z,22.25
2022-08-23T06:15:32.714Z,22.27
2022-08-23T06:16:32.734Z,22.21
2022-08-23T06:17:32.698Z,22.07
2022-08-23T06:18:32.690Z,22.35
2022-08-23T06:19:32.704Z,22.62
2022-08-23T06:20:32.747Z,22.92
2022-08-23T06:21:32.658Z,23.28
2022-08-23T06:22:32.632Z,23.69
2022-08-23T06:23:37.653Z,23.93
2022-08-23T06:24:32.626Z,24.09
2022-08-23T06:25:32.605Z,24.25
2022-08-23T06:26:32.600Z,24.49
2022-08-23T06:27:32.707Z,24.52
2022-08-23T06:28:32.617Z,24.34
2022-08-23T06:29:32.566Z,24.40
2022-08-23T06:30:34.481Z,24.35
2022-08-23T06:31:32.550Z,24.27
2022-08-23T06:32:32.597Z,24.15
2022-08-23T06:33:32.557Z,23.90
2022-08-23T06:34:37.521Z,23.66
2022-08-23T06:35:37.865Z,23.54
2022-08-23T06:36:33.487Z,23.50
2022-08-23T06:37:32.469Z,23.48
2022-08-23T06:38:32.517Z,23.57
2022-08-23T06:39:35.543Z,23.55
2022-08-23T06:40:33.439Z,23.60
2022-08-23T06:41:32.456Z,23.54
2022-08-23T06:42:38.517Z,23.53
2022-08-23T06:43:33.440Z,23.50
2022-08-23T06:44:32.396Z,23.50
2022-08-23T06:45:37.403Z,23.36
2022-08-23T06:46:32.429Z,23.47
2022-08-23T06:47:32.360Z,23.33
2022-08-23T06:48:32.364Z,23.22
2022-08-23T06:49:32.348Z,23.13
2022-08-23T06:50:32.621Z,23.19
2022-08-23T06:51:32.360Z,23.07
2022-08-23T06:52:32.303Z,23.28
2022-08-23T06:53:32.318Z,23.42
2022-08-23T06:54:32.289Z,23.55
2022-08-23T06:55:32.290Z,23.84
2022-08-23T06:56:37.291Z,23.85
2022-08-23T06:57:32.259Z,23.79
2022-08-23T06:58:32.274Z,23.90
2022-08-23T06:59:32.650Z,23.83
2022-08-23T07:00:32.282Z,23.93
2022-08-23T07:01:47.847Z,23.54
2022-08-23T07:02:33.275Z,23.48
2022-08-23T07:03:32.287Z,23.35
2022-08-23T07:04:32.223Z,23.43
2022-08-23T07:05:32.174Z,23.55
2022-08-23T07:06:32.320Z,23.50
2022-08-23T07:07:37.642Z,23.58
2022-08-23T07:08:33.318Z,23.69
2022-08-23T07:09:32.116Z,23.65
2022-08-23T07:10:32.111Z,23.66
2022-08-23T07:11:32.120Z,23.70
2022-08-23T07:12:32.079Z,23.90
2022-08-23T07:13:32.079Z,23.85
2022-08-23T07:14:32.059Z,23.88
2022-08-23T07:15:32.047Z,23.94
2022-08-23T07:16:32.135Z,23.91
2022-08-23T07:17:32.026Z,23.73
2022-08-23T07:18:37.034Z,23.80
2022-08-23T07:19:32.009Z,23.76
2022-08-23T07:20:32.001Z,23.76
2022-08-23T07:21:31.987Z,23.68
2022-08-23T07:22:31.993Z,23.76
2022-08-23T07:23:31.969Z,23.83
2022-08-23T07:24:33.636Z,23.84
2022-08-23T07:25:31.952Z,23.87
2022-08-23T07:26:31.926Z,24.03
2022-08-23T07:27:31.979Z,24.08
2022-08-23T07:28:31.904Z,24.13
2022-08-23T07:29:36.930Z,24.16
2022-08-23T07:30:31.885Z,24.16
2022-08-23T07:31:31.989Z,24.21
2022-08-23T07:32:31.856Z,24.10
2022-08-23T07:33:31.855Z,23.98
2022-08-23T07:34:31.831Z,24.05
2022-08-23T07:35:34.613Z,24.10
2022-08-23T07:36:32.833Z,24.10
2022-08-23T07:37:31.805Z,24.13
2022-08-23T07:38:31.788Z,24.15
2022-08-23T07:39:31.858Z,24.25
2022-08-23T07:40:38.998Z,24.30
2022-08-23T07:41:32.810Z,24.27
2022-08-23T07:42:31.741Z,24.32
2022-08-23T07:43:31.736Z,24.39
2022-08-23T07:44:31.723Z,24.43
2022-08-23T07:45:31.714Z,24.46
2022-08-23T07:46:31.763Z,24.47
2022-08-23T07:47:31.688Z,24.50
2022-08-23T07:48:52.425Z,24.58
2022-08-23T07:49:32.669Z,24.67
2022-08-23T07:50:31.660Z,24.73
2022-08-23T07:51:36.686Z,24.69
2022-08-23T07:52:31.636Z,24.81
2022-08-23T07:53:37.899Z,24.71
2022-08-23T07:54:32.630Z,24.71
2022-08-23T07:55:31.599Z,24.62
2022-08-23T07:56:31.593Z,24.65
2022-08-23T07:57:31.610Z,24.67
2022-08-23T07:58:31.568Z,24.69
2022-08-23T07:59:34.672Z,24.73
2022-08-23T08:00:31.547Z,24.71
2022-08-23T08:01:31.606Z,24.73
2022-08-23T08:02:36.620Z,24.62
2022-08-23T08:03:31.520Z,24.65
2022-08-23T08:04:31.495Z,24.64
2022-08-23T08:05:31.496Z,24.65
2022-08-23T08:06:31.474Z,24.67
2022-08-23T08:07:31.501Z,24.69
2022-08-23T08:08:31.522Z,24.65
2022-08-23T08:09:31.443Z,24.71
2022-08-23T08:10:31.457Z,24.76
2022-08-23T08:11:34.737Z,24.68
2022-08-23T08:12:31.418Z,24.80
2022-08-23T08:13:36.425Z,24.77
2022-08-23T08:14:31.388Z,24.78
2022-08-23T08:15:31.379Z,24.81
2022-08-23T08:16:31.476Z,24.84
2022-08-23T08:17:31.370Z,24.84
2022-08-23T08:18:31.344Z,24.87
2022-08-23T08:19:31.343Z,24.87
2022-08-23T08:20:31.320Z,24.85
2022-08-23T08:21:31.315Z,24.91
2022-08-23T08:22:31.309Z,24.90
2022-08-23T08:23:31.293Z,24.90
2022-08-23T08:24:36.302Z,24.93
2022-08-23T08:25:31.322Z,24.98
2022-08-23T08:26:31.258Z,25.03
2022-08-23T08:27:31.256Z,25.00
2022-08-23T08:28:31.235Z,25.06
2022-08-23T08:29:31.250Z,25.05
2022-08-23T08:30:31.215Z,25.09
2022-08-23T08:31:31.306Z,25.03
2022-08-23T08:32:31.201Z,25.18
2022-08-23T08:33:31.182Z,25.35
2022-08-23T08:34:31.177Z,25.36
2022-08-23T08:35:36.187Z,25.42
2022-08-23T08:36:31.155Z,25.54
2022-08-23T08:37:31.155Z,25.39
2022-08-23T08:38:31.134Z,25.47
2022-08-23T08:39:31.113Z,25.42
2022-08-23T08:40:31.107Z,25.54
2022-08-23T08:41:31.092Z,25.51
2022-08-23T08:42:31.094Z,25.54
2022-08-23T08:43:31.070Z,25.54
2022-08-23T08:44:31.060Z,25.52
2022-08-23T08:45:31.143Z,25.60
2022-08-23T08:46:36.143Z,25.62
2022-08-23T08:47:31.055Z,25.64
2022-08-23T08:48:31.019Z,25.62
2022-08-23T08:49:31.971Z,25.54
2022-08-23T08:50:30.995Z,25.60
2022-08-23T08:51:30.983Z,25.60
2022-08-23T08:52:32.223Z,25.65
2022-08-23T08:53:30.967Z,25.77
2022-08-23T08:54:30.951Z,25.82
2022-08-23T08:55:30.944Z,25.80
2022-08-23T08:56:32.159Z,25.82
2022-08-23T08:57:35.954Z,25.77
2022-08-23T08:58:30.916Z,25.79
2022-08-23T08:59:30.892Z,25.79
2022-08-23T09:00:30.896Z,25.90
2022-08-23T09:01:30.893Z,25.94
2022-08-23T09:02:32.624Z,26.05
2022-08-23T09:03:30.929Z,26.13
2022-08-23T09:04:30.874Z,26.10
2022-08-23T09:05:30.827Z,26.10
2022-08-23T09:06:30.836Z,26.01
2022-08-23T09:07:31.449Z,26.21
2022-08-23T09:08:35.836Z,26.25
2022-08-23T09:09:30.823Z,26.29
2022-08-23T09:10:30.784Z,26.37
2022-08-23T09:11:30.770Z,26.48
2022-08-23T09:12:30.763Z,26.44
2022-08-23T09:13:30.739Z,26.44
2022-08-23T09:14:31.756Z,26.45
2022-08-23T09:15:30.723Z,26.36
2022-08-23T09:16:30.713Z,26.44
2022-08-23T09:17:30.713Z,26.40
2022-08-23T09:18:30.688Z,26.43
2022-08-23T09:19:35.696Z,26.37
2022-08-23T09:20:33.101Z,26.48
2022-08-23T09:21:30.656Z,26.55
2022-08-23T09:22:30.644Z,26.50
2022-08-23T09:23:30.644Z,26.60
2022-08-23T09:24:30.627Z,26.66
2022-08-23T09:25:30.611Z,26.48
2022-08-23T09:26:30.605Z,26.65
2022-08-23T09:27:32.698Z,26.69
2022-08-23T09:28:30.592Z,26.77
2022-08-23T09:29:30.569Z,26.75
2022-08-23T09:30:35.583Z,26.77
2022-08-23T09:31:34.148Z,26.82
2022-08-23T09:32:31.541Z,26.82
2022-08-23T09:33:30.538Z,27.06
2022-08-23T09:34:30.529Z,27.22
2022-08-23T09:35:30.501Z,27.06
2022-08-23T09:36:30.498Z,26.92
2022-08-23T09:37:30.481Z,27.02
2022-08-23T09:38:30.486Z,27.06
2022-08-23T09:39:31.207Z,26.99
2022-08-23T09:40:30.451Z,27.02
2022-08-23T09:41:35.467Z,27.18
2022-08-23T09:42:30.437Z,27.09
2022-08-23T09:43:30.440Z,27.18
2022-08-23T09:44:30.414Z,27.17
2022-08-23T09:45:35.105Z,27.21
2022-08-23T09:46:31.475Z,27.27
2022-08-23T09:47:30.375Z,27.09
2022-08-23T09:48:31.232Z,27.10
2022-08-23T09:49:30.364Z,27.25
2022-08-23T09:50:30.359Z,27.37
2022-08-23T09:51:30.336Z,27.43
2022-08-23T09:52:35.350Z,27.51
2022-08-23T09:53:30.326Z,27.62
2022-08-23T09:54:30.310Z,27.62
2022-08-23T09:55:30.285Z,27.67
2022-08-23T09:56:30.278Z,27.63
2022-08-23T09:57:30.267Z,27.62
2022-08-23T09:58:30.275Z,27.63
2022-08-23T09:59:30.247Z,27.65
2022-08-23T10:00:30.232Z,27.66
2022-08-23T10:01:30.327Z,27.72
2022-08-23T10:02:30.211Z,27.79
2022-08-23T10:03:35.239Z,27.81
2022-08-23T10:04:30.207Z,27.81
2022-08-23T10:05:30.176Z,27.92
2022-08-23T10:06:31.056Z,27.88
2022-08-23T10:07:30.153Z,27.94
2022-08-23T10:08:30.151Z,27.99
2022-08-23T10:09:30.140Z,28.00
2022-08-23T10:10:30.122Z,28.02
2022-08-23T10:11:30.114Z,27.84
2022-08-23T10:12:30.100Z,27.96
2022-08-23T10:13:30.092Z,27.97
2022-08-23T10:14:35.145Z,28.04
2022-08-23T10:15:33.097Z,28.06
2022-08-23T10:16:31.098Z,28.07
2022-08-23T10:17:30.044Z,28.14
2022-08-23T10:18:30.054Z,28.17
2022-08-23T10:19:30.033Z,28.18
2022-08-23T10:20:30.038Z,28.21
2022-08-23T10:21:30.009Z,28.30
2022-08-23T10:22:29.994Z,28.18
2022-08-23T10:23:29.990Z,28.37
2022-08-23T10:24:29.995Z,28.34
2022-08-23T10:25:34.982Z,28.34
2022-08-23T10:26:29.946Z,28.44
2022-08-23T10:27:29.934Z,28.25
2022-08-23T10:28:29.934Z,28.44
2022-08-23T10:29:30.923Z,28.48
2022-08-23T10:30:29.901Z,28.43
2022-08-23T10:31:29.912Z,28.40
2022-08-23T10:32:29.880Z,28.55
2022-08-23T10:33:29.875Z,28.52
2022-08-23T10:34:30.117Z,28.52
2022-08-23T10:35:29.849Z,28.58
2022-08-23T10:36:34.869Z,28.66
2022-08-23T10:37:29.824Z,28.68
2022-08-23T10:38:29.815Z,28.81
2022-08-23T10:39:29.824Z,28.77
2022-08-23T10:40:29.830Z,28.62
2022-08-23T10:41:29.816Z,28.58
2022-08-23T10:42:29.782Z,28.52
2022-08-23T10:43:29.765Z,28.56
2022-08-23T10:44:29.767Z,28.74
2022-08-23T10:45:29.743Z,28.86
2022-08-23T10:46:29.791Z,28.85
2022-08-23T10:47:34.739Z,28.80
2022-08-23T10:48:29.706Z,28.92
2022-08-23T10:49:29.730Z,28.93
2022-08-23T10:50:29.703Z,29.09
2022-08-23T10:51:31.322Z,29.05
2022-08-23T10:52:29.663Z,28.90
2022-08-23T10:53:29.652Z,28.89
2022-08-23T10:54:29.655Z,28.96
2022-08-23T10:55:29.635Z,28.96
2022-08-23T10:56:29.627Z,29.00
2022-08-23T10:57:29.608Z,28.92
2022-08-23T10:58:34.620Z,29.14
2022-08-23T10:59:29.605Z,29.23
2022-08-23T11:00:29.584Z,29.33
2022-08-23T11:01:29.626Z,29.27
2022-08-23T11:02:29.616Z,29.39
2022-08-23T11:03:29.543Z,29.36
2022-08-23T11:04:29.543Z,29.36
2022-08-23T11:05:29.525Z,29.36
2022-08-23T11:06:29.513Z,29.34
2022-08-23T11:07:29.504Z,29.43
2022-08-23T11:08:29.519Z,29.45
2022-08-23T11:09:34.512Z,29.48
2022-08-23T11:10:29.491Z,29.53
2022-08-23T11:11:29.480Z,29.60
2022-08-23T11:12:29.448Z,29.61
2022-08-23T11:13:29.456Z,29.71
2022-08-23T11:14:29.511Z,29.58
2022-08-23T11:15:29.437Z,29.58
2022-08-23T11:16:29.406Z,29.57
2022-08-23T11:17:29.392Z,29.60
2022-08-23T11:18:33.148Z,29.46
2022-08-23T11:19:29.383Z,29.63
2022-08-23T11:20:29.362Z,29.53
2022-08-23T11:21:29.349Z,29.65
2022-08-23T11:22:34.374Z,29.60
2022-08-23T11:23:29.351Z,29.65
2022-08-23T11:24:29.350Z,29.74
2022-08-23T11:25:29.316Z,29.71
2022-08-23T11:26:29.296Z,29.70
2022-08-23T11:27:29.285Z,29.78
2022-08-23T11:28:30.438Z,29.80
2022-08-23T11:29:29.273Z,29.79
2022-08-23T11:30:29.262Z,29.82
2022-08-23T11:31:29.241Z,29.78
2022-08-23T11:32:30.074Z,29.71
2022-08-23T11:33:29.219Z,29.65
2022-08-23T11:34:29.680Z,29.76
2022-08-23T11:35:34.238Z,29.85
2022-08-23T11:36:29.214Z,29.80
2022-08-23T11:37:29.201Z,29.83
2022-08-23T11:38:29.178Z,29.87
2022-08-23T11:39:29.155Z,30.13
2022-08-23T11:40:29.179Z,30.29
2022-08-23T11:41:30.127Z,30.27
2022-08-23T11:42:29.124Z,30.35
2022-08-23T11:43:29.119Z,30.31
2022-08-23T11:44:29.105Z,30.34
2022-08-23T11:45:29.115Z,30.32
2022-08-23T11:46:29.191Z,30.35
2022-08-23T11:47:29.069Z,30.34
2022-08-23T11:48:34.093Z,30.27
2022-08-23T11:49:29.070Z,30.31
2022-08-23T11:50:29.074Z,30.29
2022-08-23T11:51:29.051Z,30.32
2022-08-23T11:52:29.017Z,30.37
2022-08-23T11:53:29.007Z,30.39
2022-08-23T11:54:28.996Z,30.43
2022-08-23T11:55:28.995Z,30.38
2022-08-23T11:56:28.975Z,30.42
2022-08-23T11:57:28.967Z,30.38
2022-08-23T11:58:29.699Z,30.47
2022-08-23T11:59:28.940Z,30.51
2022-08-23T12:00:29.737Z,30.38
2022-08-23T12:01:33.939Z,30.35
2022-08-23T12:02:29.049Z,30.60
2022-08-23T12:03:29.067Z,31.26
2022-08-23T12:04:28.901Z,31.81
2022-08-23T12:05:28.885Z,31.89
2022-08-23T12:06:28.870Z,31.84
2022-08-23T12:07:28.855Z,32.29
2022-08-23T12:08:28.861Z,33.01
2022-08-23T12:09:28.848Z,33.75
2022-08-23T12:10:28.848Z,34.28
2022-08-23T12:11:28.814Z,34.70
2022-08-23T12:12:28.803Z,34.73
2022-08-23T12:13:28.791Z,34.75
2022-08-23T12:14:34.008Z,34.82
2022-08-23T12:15:28.869Z,34.94
2022-08-23T12:16:29.064Z,35.31
2022-08-23T12:17:29.757Z,35.77
2022-08-23T12:18:29.746Z,35.38
2022-08-23T12:19:28.736Z,35.29
2022-08-23T12:20:28.734Z,35.80
2022-08-23T12:21:28.710Z,35.87
2022-08-23T12:22:28.742Z,35.99
2022-08-23T12:23:28.707Z,36.09
2022-08-23T12:24:28.678Z,36.28
2022-08-23T12:25:28.695Z,36.41
2022-08-23T12:26:28.668Z,36.49
2022-08-23T12:27:33.673Z,36.66
2022-08-23T12:28:28.642Z,36.51
2022-08-23T12:29:28.631Z,36.38
2022-08-23T12:30:28.629Z,37.02
2022-08-23T12:31:28.722Z,37.40
2022-08-23T12:32:30.394Z,37.46
2022-08-23T12:33:28.593Z,38.00
2022-08-23T12:34:28.600Z,37.59
2022-08-23T12:35:28.580Z,36.43
2022-08-23T12:36:28.560Z,35.52
2022-08-23T12:37:28.557Z,34.96
2022-08-23T12:38:33.564Z,35.63
2022-08-23T12:39:28.534Z,36.34
2022-08-23T12:40:28.530Z,36.93
2022-08-23T12:41:28.508Z,37.22
2022-08-23T12:42:28.503Z,37.34
2022-08-23T12:43:28.503Z,37.64
2022-08-23T12:44:28.483Z,37.40
2022-08-23T12:45:28.552Z,37.63
2022-08-23T12:46:28.521Z,37.31
2022-08-23T12:47:28.458Z,37.18
2022-08-23T12:48:28.439Z,37.32
2022-08-23T12:49:33.456Z,36.57
2022-08-23T12:50:32.718Z,35.93
2022-08-23T12:51:28.452Z,35.44
2022-08-23T12:52:28.399Z,35.29
2022-08-23T12:53:28.388Z,35.09
2022-08-23T12:54:28.383Z,34.65
2022-08-23T12:55:28.379Z,34.59
2022-08-23T12:56:31.653Z,34.34
2022-08-23T12:57:28.348Z,34.02
2022-08-23T12:58:31.645Z,33.86
2022-08-23T12:59:28.329Z,33.57
2022-08-23T13:00:33.949Z,33.44
2022-08-23T13:01:30.015Z,33.28
2022-08-23T13:02:28.346Z,33.07
2022-08-23T13:03:28.317Z,32.82
2022-08-23T13:04:28.289Z,32.79
2022-08-23T13:05:28.299Z,32.55
2022-08-23T13:06:28.264Z,32.56
2022-08-23T13:07:28.257Z,32.44
2022-08-23T13:08:34.703Z,32.28
2022-08-23T13:09:29.360Z,32.14
2022-08-23T13:10:28.230Z,32.15
2022-08-23T13:11:33.225Z,31.89
2022-08-23T13:12:28.215Z,31.78
2022-08-23T13:13:28.211Z,31.89
2022-08-23T13:14:31.141Z,31.84
2022-08-23T13:15:28.201Z,31.81
2022-08-23T13:16:28.292Z,31.76
2022-08-23T13:17:28.140Z,31.68
2022-08-23T13:18:28.135Z,31.68
2022-08-23T13:19:28.125Z,31.66
2022-08-23T13:20:28.131Z,31.63
2022-08-23T13:21:28.108Z,31.65
2022-08-23T13:22:28.089Z,31.62
2022-08-23T13:23:28.079Z,31.58
2022-08-23T13:24:37.720Z,31.62
2022-08-23T13:25:32.006Z,31.62
2022-08-23T13:26:28.070Z,31.57
2022-08-23T13:27:28.859Z,31.48
2022-08-23T13:28:29.024Z,31.39
2022-08-23T13:29:28.030Z,31.07
2022-08-23T13:30:28.040Z,30.86
2022-08-23T13:31:28.024Z,30.67
2022-08-23T13:32:27.981Z,30.61
2022-08-23T13:33:27.972Z,30.51
2022-08-23T13:34:27.960Z,30.55
2022-08-23T13:35:27.967Z,30.47
2022-08-23T13:36:27.940Z,30.53
2022-08-23T13:37:32.970Z,30.61
2022-08-23T13:38:27.946Z,30.69
2022-08-23T13:39:27.940Z,30.86
2022-08-23T13:40:27.956Z,30.88
2022-08-23T13:41:27.886Z,30.88
2022-08-23T13:42:27.901Z,30.89
2022-08-23T13:43:27.866Z,30.95
2022-08-23T13:44:27.856Z,30.99
2022-08-23T13:45:27.842Z,31.04
2022-08-23T13:46:27.962Z,30.98
2022-08-23T13:47:27.874Z,30.99
2022-08-23T13:48:27.810Z,30.99
2022-08-23T13:49:27.801Z,31.01
2022-08-23T13:50:32.829Z,30.91
2022-08-23T13:51:27.812Z,30.94
2022-08-23T13:52:50.890Z,30.99
2022-08-23T13:53:28.756Z,30.97
2022-08-23T13:54:27.754Z,30.97
2022-08-23T13:55:27.738Z,30.94
2022-08-23T13:56:27.737Z,31.01
2022-08-23T13:57:30.161Z,30.97
2022-08-23T13:58:27.702Z,30.99
2022-08-23T13:59:31.781Z,31.06
2022-08-23T14:00:27.701Z,31.14
2022-08-23T14:01:27.736Z,31.12
2022-08-23T14:02:27.662Z,31.21
2022-08-23T14:03:32.674Z,31.21
2022-08-23T14:04:27.661Z,31.23
2022-08-23T14:05:27.672Z,31.25
2022-08-23T14:06:28.725Z,31.19
2022-08-23T14:07:27.607Z,31.29
2022-08-23T14:08:27.597Z,31.38
2022-08-23T14:09:27.586Z,31.34
2022-08-23T14:10:27.576Z,31.28
2022-08-23T14:11:27.588Z,31.43
2022-08-23T14:12:27.896Z,31.29
2022-08-23T14:13:27.547Z,31.29
2022-08-23T14:14:27.533Z,31.29
2022-08-23T14:16:34.164Z,31.36
2022-08-23T14:17:27.548Z,31.25
2022-08-23T14:18:27.537Z,31.23
2022-08-23T14:20:33.432Z,31.17
2022-08-23T14:21:28.482Z,31.23
2022-08-23T14:22:27.448Z,31.12
2022-08-23T14:23:27.436Z,31.20
2022-08-23T14:24:27.427Z,31.19
2022-08-23T14:25:27.418Z,31.09
2022-08-23T14:26:27.417Z,31.10
2022-08-23T14:27:27.397Z,31.10
2022-08-23T14:28:27.384Z,31.13
2022-08-23T14:29:32.398Z,31.19
2022-08-23T14:30:29.291Z,31.26
2022-08-23T14:31:27.399Z,31.31
2022-08-23T14:32:27.337Z,31.26
2022-08-23T14:33:27.347Z,31.38
2022-08-23T14:34:27.319Z,31.32
2022-08-23T14:35:27.308Z,31.36
2022-08-23T14:36:30.002Z,31.29
2022-08-23T14:38:28.274Z,31.25
2022-08-23T14:39:27.294Z,31.26
2022-08-23T14:40:27.323Z,31.31
2022-08-23T14:41:27.246Z,31.32
2022-08-23T14:42:32.329Z,31.39
2022-08-23T14:43:27.243Z,31.41
2022-08-23T14:44:33.122Z,31.44
2022-08-23T14:45:28.200Z,31.44
2022-08-23T14:46:27.278Z,31.53
2022-08-23T14:47:27.197Z,31.38
2022-08-23T14:48:27.172Z,31.38
2022-08-23T14:49:27.185Z,31.39
2022-08-23T14:50:28.243Z,31.41
2022-08-23T14:51:27.138Z,31.26
2022-08-23T14:52:27.136Z,31.38
2022-08-23T14:53:27.119Z,31.44
2022-08-23T14:54:27.104Z,31.46
2022-08-23T14:55:32.117Z,31.46
2022-08-23T14:56:27.104Z,31.47
2022-08-23T14:57:27.110Z,31.46
2022-08-23T14:58:27.058Z,31.53
2022-08-23T14:59:27.056Z,31.44
2022-08-23T15:00:27.041Z,31.36
2022-08-23T15:01:27.086Z,31.35
2022-08-23T15:02:27.030Z,31.32
2022-08-23T15:03:27.055Z,31.23
2022-08-23T15:04:32.375Z,31.23
2022-08-23T15:05:27.989Z,31.14
2022-08-23T15:06:26.975Z,31.34
2022-08-23T15:07:26.980Z,31.28
2022-08-23T15:08:31.977Z,31.31
2022-08-23T15:09:26.964Z,31.34
2022-08-23T15:13:33.844Z,31.36
2022-08-23T15:14:27.888Z,31.31
2022-08-23T15:15:26.887Z,31.38
2022-08-23T15:16:26.922Z,31.20
2022-08-23T15:17:31.315Z,31.25
2022-08-23T15:18:26.857Z,31.16
2022-08-23T15:19:26.852Z,31.20
2022-08-23T15:20:26.824Z,31.16
2022-08-23T15:21:31.839Z,31.26
2022-08-23T15:22:26.844Z,31.21
2022-08-23T15:23:26.818Z,31.34
2022-08-23T15:24:26.783Z,31.32
2022-08-23T15:25:26.773Z,31.32
2022-08-23T15:26:26.760Z,31.32
2022-08-23T15:27:26.764Z,31.19
2022-08-23T15:28:26.741Z,31.23
2022-08-23T15:29:26.731Z,31.20
2022-08-23T15:30:26.828Z,31.19
2022-08-23T15:31:26.704Z,31.23
2022-08-23T15:32:26.708Z,31.16
2022-08-23T15:33:30.822Z,31.23
2022-08-23T15:34:33.313Z,31.23
2022-08-23T15:35:26.694Z,31.20
2022-08-23T15:36:26.702Z,31.28
2022-08-23T15:37:26.654Z,31.25
2022-08-23T15:38:26.639Z,31.23
2022-08-23T15:39:26.625Z,31.21
2022-08-23T15:40:26.669Z,31.14
2022-08-23T15:41:26.596Z,31.07
2022-08-23T15:42:26.602Z,31.16
2022-08-23T15:43:34.017Z,31.06
2022-08-23T15:44:27.571Z,31.13
2022-08-23T15:45:26.554Z,30.97
2022-08-23T15:46:26.642Z,31.07
2022-08-23T15:47:31.568Z,31.09
2022-08-23T15:48:26.556Z,31.09
2022-08-23T15:49:26.535Z,31.06
2022-08-23T15:50:26.503Z,30.98
2022-08-23T15:51:26.497Z,31.01
2022-08-23T15:52:26.510Z,30.95
2022-08-23T15:53:26.469Z,31.04
2022-08-23T15:54:26.470Z,30.99
2022-08-23T15:55:26.452Z,31.06
2022-08-23T15:56:26.444Z,30.99
2022-08-23T15:57:27.939Z,30.98
2022-08-23T15:58:26.423Z,30.89
2022-08-23T15:59:26.413Z,30.84
2022-08-23T16:00:31.956Z,30.88
2022-08-23T16:01:26.461Z,30.82
2022-08-23T16:02:26.441Z,30.76
2022-08-23T16:03:26.475Z,30.75
2022-08-23T16:04:26.351Z,30.76
2022-08-23T16:05:27.342Z,30.82
2022-08-23T16:06:26.336Z,30.83
2022-08-23T16:07:26.335Z,30.82
2022-08-23T16:08:26.324Z,30.84
2022-08-23T16:09:26.339Z,30.94
2022-08-23T16:10:28.099Z,30.92
2022-08-23T16:11:26.276Z,30.89
2022-08-23T16:12:26.268Z,30.95
2022-08-23T16:13:31.287Z,30.88
2022-08-23T16:14:26.291Z,30.89
2022-08-23T16:15:26.261Z,30.94
2022-08-23T16:16:26.294Z,30.95
2022-08-23T16:17:26.213Z,30.91
2022-08-23T16:18:26.217Z,30.91
2022-08-23T16:19:26.196Z,30.94
2022-08-23T16:20:26.181Z,30.97
2022-08-23T16:21:26.176Z,31.06
2022-08-23T16:22:26.163Z,31.09
2022-08-23T16:23:26.158Z,31.06
2022-08-23T16:24:26.144Z,31.04
2022-08-23T16:25:26.130Z,31.04
2022-08-23T16:26:35.157Z,30.98
2022-08-23T16:27:26.174Z,30.92
2022-08-23T16:28:26.129Z,30.89
2022-08-23T16:29:26.087Z,30.94
2022-08-23T16:30:26.093Z,30.88
2022-08-23T16:31:38.617Z,30.79
2022-08-23T16:32:27.055Z,30.75
2022-08-23T16:33:26.067Z,30.83
2022-08-23T16:34:26.089Z,30.77
2022-08-23T16:35:26.067Z,30.75
2022-08-23T16:36:30.101Z,30.80
2022-08-23T16:37:26.025Z,30.82
2022-08-23T16:38:26.025Z,30.83
2022-08-23T16:39:31.000Z,30.76
2022-08-23T16:40:26.058Z,30.83
2022-08-23T16:41:25.977Z,30.83
2022-08-23T16:42:25.961Z,30.89
2022-08-23T16:43:25.951Z,30.82
2022-08-23T16:44:25.922Z,30.88
2022-08-23T16:45:26.512Z,30.84
2022-08-23T16:46:26.001Z,30.86
2022-08-23T16:47:25.890Z,30.92
2022-08-23T16:48:25.898Z,30.88
2022-08-23T16:49:25.873Z,30.82
2022-08-23T16:50:25.861Z,30.83
2022-08-23T16:51:25.845Z,30.83
2022-08-23T16:52:35.004Z,30.88
2022-08-23T16:53:25.943Z,30.83
2022-08-23T16:54:25.851Z,30.92
2022-08-23T16:55:25.807Z,30.89
2022-08-23T16:56:25.795Z,30.86
2022-08-23T16:57:25.781Z,30.75
2022-08-23T16:58:25.809Z,30.77